sensor_id;sensor_type;location;lat;lon;timestamp;P1;durP1;ratioP1;P2;durP2;ratioP2
17345;SDS011;8790;53.590;10.002;2022-10-31T00:02:31;33.10;;;25.47;;
17345;SDS011;8790;53.590;10.002;2022-10-31T00:05:04;31.33;;;24.47;;
17345;SDS011;8790;53.590;10.002;2022-10-31T00:07:36;32.90;;;24.03;;
17345;SDS011;8790;53.590;10.002;2022-10-31T00:10:08;32.83;;;24.37;;
17345;SDS011;8790;53.590;10.002;2022-10-31T00:12:40;32.20;;;24.13;;
17345;SDS011;8790;53.590;10.002;2022-10-31T00:15:12;31.80;;;24.13;;
17345;SDS011;8790;53.590;10.002;2022-10-31T00:17:43;32.20;;;24.93;;
17345;SDS011;8790;53.590;10.002;2022-10-31T00:20:16;31.83;;;22.77;;
17345;SDS011;8790;53.590;10.002;2022-10-31T00:22:48;32.90;;;23.67;;
17345;SDS011;8790;53.590;10.002;2022-10-31T00:25:20;29.67;;;21.80;;
17345;SDS011;8790;53.590;10.002;2022-10-31T00:27:51;31.27;;;22.33;;
17345;SDS011;8790;53.590;10.002;2022-10-31T00:30:23;29.67;;;20.93;;
17345;SDS011;8790;53.590;10.002;2022-10-31T00:32:55;28.10;;;22.00;;
17345;SDS011;8790;53.590;10.002;2022-10-31T00:35:28;25.77;;;19.70;;
17345;SDS011;8790;53.590;10.002;2022-10-31T00:38:00;28.60;;;21.60;;
17345;SDS011;8790;53.590;10.002;2022-10-31T00:40:32;28.20;;;20.30;;
17345;SDS011;8790;53.590;10.002;2022-10-31T00:43:04;30.83;;;21.33;;
17345;SDS011;8790;53.590;10.002;2022-10-31T00:45:36;28.83;;;20.73;;
17345;SDS011;8790;53.590;10.002;2022-10-31T00:48:07;27.83;;;20.80;;
17345;SDS011;8790;53.590;10.002;2022-10-31T00:50:41;28.27;;;20.30;;
17345;SDS011;8790;53.590;10.002;2022-10-31T00:53:13;28.97;;;20.10;;
17345;SDS011;8790;53.590;10.002;2022-10-31T00:55:45;29.37;;;19.23;;
17345;SDS011;8790;53.590;10.002;2022-10-31T00:58:17;29.80;;;19.37;;
17345;SDS011;8790;53.590;10.002;2022-10-31T01:00:49;24.20;;;18.30;;
17345;SDS011;8790;53.590;10.002;2022-10-31T01:03:25;29.03;;;18.07;;
17345;SDS011;8790;53.590;10.002;2022-10-31T01:06:01;28.80;;;18.80;;
17345;SDS011;8790;53.590;10.002;2022-10-31T01:08:36;26.37;;;18.37;;
17345;SDS011;8790;53.590;10.002;2022-10-31T01:11:10;24.87;;;18.90;;
17345;SDS011;8790;53.590;10.002;2022-10-31T01:13:44;29.23;;;18.60;;
17345;SDS011;8790;53.590;10.002;2022-10-31T01:16:18;30.87;;;18.50;;
17345;SDS011;8790;53.590;10.002;2022-10-31T01:18:51;25.70;;;18.27;;
17345;SDS011;8790;53.590;10.002;2022-10-31T01:21:25;22.40;;;17.60;;
17345;SDS011;8790;53.590;10.002;2022-10-31T01:24:01;26.03;;;18.43;;
17345;SDS011;8790;53.590;10.002;2022-10-31T01:26:33;26.00;;;18.13;;
17345;SDS011;8790;53.590;10.002;2022-10-31T01:29:05;27.37;;;18.87;;
17345;SDS011;8790;53.590;10.002;2022-10-31T01:31:39;26.90;;;17.63;;
17345;SDS011;8790;53.590;10.002;2022-10-31T01:34:11;26.50;;;18.83;;
17345;SDS011;8790;53.590;10.002;2022-10-31T01:36:45;30.50;;;19.60;;
17345;SDS011;8790;53.590;10.002;2022-10-31T01:39:21;26.97;;;18.63;;
17345;SDS011;8790;53.590;10.002;2022-10-31T01:41:53;28.27;;;19.60;;
17345;SDS011;8790;53.590;10.002;2022-10-31T01:47:32;34.53;;;19.97;;
17345;SDS011;8790;53.590;10.002;2022-10-31T01:50:13;25.73;;;19.80;;
17345;SDS011;8790;53.590;10.002;2022-10-31T01:52:53;26.40;;;19.63;;
17345;SDS011;8790;53.590;10.002;2022-10-31T01:55:26;29.63;;;20.17;;
17345;SDS011;8790;53.590;10.002;2022-10-31T01:58:02;26.63;;;19.77;;
17345;SDS011;8790;53.590;10.002;2022-10-31T02:00:37;28.73;;;19.53;;
17345;SDS011;8790;53.590;10.002;2022-10-31T02:03:10;26.73;;;20.03;;
17345;SDS011;8790;53.590;10.002;2022-10-31T02:05:42;31.60;;;20.90;;
17345;SDS011;8790;53.590;10.002;2022-10-31T02:08:18;28.63;;;20.03;;
17345;SDS011;8790;53.590;10.002;2022-10-31T02:10:54;27.60;;;20.03;;
17345;SDS011;8790;53.590;10.002;2022-10-31T02:13:27;29.63;;;19.70;;
17345;SDS011;8790;53.590;10.002;2022-10-31T02:16:00;30.37;;;19.67;;
17345;SDS011;8790;53.590;10.002;2022-10-31T02:18:32;32.70;;;20.40;;
17345;SDS011;8790;53.590;10.002;2022-10-31T02:21:06;32.73;;;19.00;;
17345;SDS011;8790;53.590;10.002;2022-10-31T02:23:55;33.27;;;20.03;;
17345;SDS011;8790;53.590;10.002;2022-10-31T02:26:53;30.07;;;20.50;;
17345;SDS011;8790;53.590;10.002;2022-10-31T02:32:52;31.00;;;19.90;;
17345;SDS011;8790;53.590;10.002;2022-10-31T02:35:35;27.33;;;19.50;;
17345;SDS011;8790;53.590;10.002;2022-10-31T02:38:20;30.47;;;19.40;;
17345;SDS011;8790;53.590;10.002;2022-10-31T02:40:59;27.33;;;19.43;;
17345;SDS011;8790;53.590;10.002;2022-10-31T02:43:49;31.93;;;20.13;;
17345;SDS011;8790;53.590;10.002;2022-10-31T02:46:28;30.57;;;20.40;;
17345;SDS011;8790;53.590;10.002;2022-10-31T02:49:10;25.57;;;19.67;;
17345;SDS011;8790;53.590;10.002;2022-10-31T02:51:45;30.63;;;20.50;;
17345;SDS011;8790;53.590;10.002;2022-10-31T02:54:19;32.13;;;20.90;;
17345;SDS011;8790;53.590;10.002;2022-10-31T02:56:57;27.60;;;19.37;;
17345;SDS011;8790;53.590;10.002;2022-10-31T02:59:35;30.73;;;20.70;;
17345;SDS011;8790;53.590;10.002;2022-10-31T03:02:23;29.70;;;19.63;;
17345;SDS011;8790;53.590;10.002;2022-10-31T03:05:09;28.03;;;19.60;;
17345;SDS011;8790;53.590;10.002;2022-10-31T03:07:56;30.27;;;20.47;;
17345;SDS011;8790;53.590;10.002;2022-10-31T03:10:35;29.80;;;20.27;;
17345;SDS011;8790;53.590;10.002;2022-10-31T03:13:13;30.00;;;20.20;;
17345;SDS011;8790;53.590;10.002;2022-10-31T03:15:53;31.27;;;20.83;;
17345;SDS011;8790;53.590;10.002;2022-10-31T03:18:34;28.70;;;19.77;;
17345;SDS011;8790;53.590;10.002;2022-10-31T03:21:12;29.20;;;20.70;;
17345;SDS011;8790;53.590;10.002;2022-10-31T03:23:46;32.17;;;20.03;;
17345;SDS011;8790;53.590;10.002;2022-10-31T03:26:23;30.90;;;20.60;;
17345;SDS011;8790;53.590;10.002;2022-10-31T03:28:57;31.57;;;20.83;;
17345;SDS011;8790;53.590;10.002;2022-10-31T03:31:32;29.50;;;21.30;;
17345;SDS011;8790;53.590;10.002;2022-10-31T03:34:09;34.67;;;20.80;;
17345;SDS011;8790;53.590;10.002;2022-10-31T03:36:45;29.93;;;21.20;;
17345;SDS011;8790;53.590;10.002;2022-10-31T03:39:19;30.13;;;20.37;;
17345;SDS011;8790;53.590;10.002;2022-10-31T03:41:54;33.93;;;20.57;;
17345;SDS011;8790;53.590;10.002;2022-10-31T03:44:29;37.10;;;21.00;;
17345;SDS011;8790;53.590;10.002;2022-10-31T03:47:06;29.17;;;20.30;;
17345;SDS011;8790;53.590;10.002;2022-10-31T03:49:38;32.80;;;20.93;;
17345;SDS011;8790;53.590;10.002;2022-10-31T03:52:13;35.23;;;21.83;;
17345;SDS011;8790;53.590;10.002;2022-10-31T03:54:54;37.57;;;22.00;;
17345;SDS011;8790;53.590;10.002;2022-10-31T03:57:29;33.70;;;20.43;;
17345;SDS011;8790;53.590;10.002;2022-10-31T04:00:08;33.77;;;21.13;;
17345;SDS011;8790;53.590;10.002;2022-10-31T04:02:49;31.53;;;20.83;;
17345;SDS011;8790;53.590;10.002;2022-10-31T04:05:24;30.47;;;20.70;;
17345;SDS011;8790;53.590;10.002;2022-10-31T04:08:04;32.07;;;20.80;;
17345;SDS011;8790;53.590;10.002;2022-10-31T04:10:40;38.47;;;21.83;;
17345;SDS011;8790;53.590;10.002;2022-10-31T04:13:16;34.07;;;21.37;;
17345;SDS011;8790;53.590;10.002;2022-10-31T04:16:00;37.10;;;21.77;;
17345;SDS011;8790;53.590;10.002;2022-10-31T04:18:32;35.63;;;23.47;;
17345;SDS011;8790;53.590;10.002;2022-10-31T04:21:04;35.60;;;22.40;;
17345;SDS011;8790;53.590;10.002;2022-10-31T04:23:38;36.50;;;22.70;;
17345;SDS011;8790;53.590;10.002;2022-10-31T04:26:21;33.50;;;21.97;;
17345;SDS011;8790;53.590;10.002;2022-10-31T04:28:53;36.27;;;21.93;;
17345;SDS011;8790;53.590;10.002;2022-10-31T04:31:25;32.23;;;22.03;;
17345;SDS011;8790;53.590;10.002;2022-10-31T04:33:57;32.40;;;21.87;;
17345;SDS011;8790;53.590;10.002;2022-10-31T04:36:29;36.20;;;22.53;;
17345;SDS011;8790;53.590;10.002;2022-10-31T04:39:03;36.53;;;21.90;;
17345;SDS011;8790;53.590;10.002;2022-10-31T04:41:42;35.97;;;22.93;;
17345;SDS011;8790;53.590;10.002;2022-10-31T04:44:18;32.17;;;22.37;;
17345;SDS011;8790;53.590;10.002;2022-10-31T04:46:53;34.33;;;22.20;;
17345;SDS011;8790;53.590;10.002;2022-10-31T04:49:26;33.03;;;21.70;;
17345;SDS011;8790;53.590;10.002;2022-10-31T04:51:58;35.77;;;22.43;;
17345;SDS011;8790;53.590;10.002;2022-10-31T04:54:31;36.17;;;21.70;;
17345;SDS011;8790;53.590;10.002;2022-10-31T04:57:41;33.00;;;21.00;;
17345;SDS011;8790;53.590;10.002;2022-10-31T05:00:14;31.80;;;21.57;;
17345;SDS011;8790;53.590;10.002;2022-10-31T05:02:47;34.37;;;22.30;;
17345;SDS011;8790;53.590;10.002;2022-10-31T05:05:21;33.37;;;21.20;;
17345;SDS011;8790;53.590;10.002;2022-10-31T05:07:54;37.23;;;22.53;;
17345;SDS011;8790;53.590;10.002;2022-10-31T05:10:29;35.97;;;22.27;;
17345;SDS011;8790;53.590;10.002;2022-10-31T05:13:03;35.93;;;21.07;;
17345;SDS011;8790;53.590;10.002;2022-10-31T05:15:54;31.23;;;20.83;;
17345;SDS011;8790;53.590;10.002;2022-10-31T05:18:52;32.17;;;21.40;;
17345;SDS011;8790;53.590;10.002;2022-10-31T05:21:59;37.27;;;21.73;;
17345;SDS011;8790;53.590;10.002;2022-10-31T05:24:32;34.27;;;19.90;;
17345;SDS011;8790;53.590;10.002;2022-10-31T05:27:05;32.73;;;20.17;;
17345;SDS011;8790;53.590;10.002;2022-10-31T05:29:36;33.03;;;20.27;;
17345;SDS011;8790;53.590;10.002;2022-10-31T05:32:08;32.27;;;20.40;;
17345;SDS011;8790;53.590;10.002;2022-10-31T05:35:06;31.27;;;20.43;;
17345;SDS011;8790;53.590;10.002;2022-10-31T05:38:01;33.57;;;20.33;;
17345;SDS011;8790;53.590;10.002;2022-10-31T05:40:33;33.70;;;20.07;;
17345;SDS011;8790;53.590;10.002;2022-10-31T05:43:06;37.80;;;21.30;;
17345;SDS011;8790;53.590;10.002;2022-10-31T05:45:38;31.13;;;20.43;;
17345;SDS011;8790;53.590;10.002;2022-10-31T05:48:19;35.07;;;20.83;;
17345;SDS011;8790;53.590;10.002;2022-10-31T05:51:09;31.90;;;19.33;;
17345;SDS011;8790;53.590;10.002;2022-10-31T05:53:41;31.37;;;19.50;;
17345;SDS011;8790;53.590;10.002;2022-10-31T05:56:13;32.80;;;20.37;;
17345;SDS011;8790;53.590;10.002;2022-10-31T05:58:46;32.33;;;21.03;;
17345;SDS011;8790;53.590;10.002;2022-10-31T06:01:18;32.37;;;20.17;;
17345;SDS011;8790;53.590;10.002;2022-10-31T06:03:50;34.17;;;20.57;;
17345;SDS011;8790;53.590;10.002;2022-10-31T06:06:23;32.77;;;20.60;;
17345;SDS011;8790;53.590;10.002;2022-10-31T06:08:56;39.07;;;21.13;;
17345;SDS011;8790;53.590;10.002;2022-10-31T06:11:29;39.53;;;20.97;;
17345;SDS011;8790;53.590;10.002;2022-10-31T06:14:08;33.33;;;19.73;;
17345;SDS011;8790;53.590;10.002;2022-10-31T06:16:49;33.63;;;19.63;;
17345;SDS011;8790;53.590;10.002;2022-10-31T06:19:39;34.60;;;20.37;;
17345;SDS011;8790;53.590;10.002;2022-10-31T06:22:13;33.80;;;19.83;;
17345;SDS011;8790;53.590;10.002;2022-10-31T06:24:47;34.10;;;19.97;;
17345;SDS011;8790;53.590;10.002;2022-10-31T06:27:33;34.77;;;19.77;;
17345;SDS011;8790;53.590;10.002;2022-10-31T06:30:14;37.17;;;20.23;;
17345;SDS011;8790;53.590;10.002;2022-10-31T06:32:46;32.57;;;19.70;;
17345;SDS011;8790;53.590;10.002;2022-10-31T06:35:19;36.63;;;19.73;;
17345;SDS011;8790;53.590;10.002;2022-10-31T06:37:54;35.97;;;19.50;;
17345;SDS011;8790;53.590;10.002;2022-10-31T06:40:41;34.57;;;19.93;;
17345;SDS011;8790;53.590;10.002;2022-10-31T06:43:25;30.63;;;18.83;;
17345;SDS011;8790;53.590;10.002;2022-10-31T06:46:21;33.13;;;19.00;;
17345;SDS011;8790;53.590;10.002;2022-10-31T06:49:16;30.20;;;18.37;;
17345;SDS011;8790;53.590;10.002;2022-10-31T06:51:58;32.13;;;20.20;;
17345;SDS011;8790;53.590;10.002;2022-10-31T06:54:30;30.93;;;18.77;;
17345;SDS011;8790;53.590;10.002;2022-10-31T06:57:02;29.37;;;18.77;;
17345;SDS011;8790;53.590;10.002;2022-10-31T06:59:33;32.70;;;19.70;;
17345;SDS011;8790;53.590;10.002;2022-10-31T07:02:23;30.73;;;18.67;;
17345;SDS011;8790;53.590;10.002;2022-10-31T07:04:55;28.20;;;17.90;;
17345;SDS011;8790;53.590;10.002;2022-10-31T07:07:27;33.87;;;19.20;;
17345;SDS011;8790;53.590;10.002;2022-10-31T07:09:59;32.47;;;18.60;;
17345;SDS011;8790;53.590;10.002;2022-10-31T07:12:47;31.90;;;18.23;;
17345;SDS011;8790;53.590;10.002;2022-10-31T07:15:18;31.73;;;18.93;;
17345;SDS011;8790;53.590;10.002;2022-10-31T07:17:52;35.23;;;20.03;;
17345;SDS011;8790;53.590;10.002;2022-10-31T07:20:25;31.17;;;19.30;;
17345;SDS011;8790;53.590;10.002;2022-10-31T07:22:57;33.17;;;19.50;;
17345;SDS011;8790;53.590;10.002;2022-10-31T07:25:30;31.03;;;19.97;;
17345;SDS011;8790;53.590;10.002;2022-10-31T07:28:22;30.87;;;18.97;;
17345;SDS011;8790;53.590;10.002;2022-10-31T07:30:56;29.00;;;18.40;;
17345;SDS011;8790;53.590;10.002;2022-10-31T07:33:30;31.70;;;19.03;;
17345;SDS011;8790;53.590;10.002;2022-10-31T07:36:30;26.53;;;17.87;;
17345;SDS011;8790;53.590;10.002;2022-10-31T07:39:06;29.87;;;18.10;;
17345;SDS011;8790;53.590;10.002;2022-10-31T07:41:39;25.37;;;17.13;;
17345;SDS011;8790;53.590;10.002;2022-10-31T07:44:13;29.00;;;17.63;;
17345;SDS011;8790;53.590;10.002;2022-10-31T07:47:03;24.30;;;16.40;;
17345;SDS011;8790;53.590;10.002;2022-10-31T07:49:55;26.10;;;16.43;;
17345;SDS011;8790;53.590;10.002;2022-10-31T07:52:45;26.57;;;16.07;;
17345;SDS011;8790;53.590;10.002;2022-10-31T07:55:32;23.33;;;15.23;;
17345;SDS011;8790;53.590;10.002;2022-10-31T07:58:05;24.70;;;15.07;;
17345;SDS011;8790;53.590;10.002;2022-10-31T08:00:42;22.73;;;14.70;;
17345;SDS011;8790;53.590;10.002;2022-10-31T08:03:18;21.40;;;13.53;;
17345;SDS011;8790;53.590;10.002;2022-10-31T08:06:10;21.90;;;14.80;;
17345;SDS011;8790;53.590;10.002;2022-10-31T08:09:08;24.77;;;14.17;;
17345;SDS011;8790;53.590;10.002;2022-10-31T08:11:40;23.93;;;13.80;;
17345;SDS011;8790;53.590;10.002;2022-10-31T08:14:12;22.43;;;14.23;;
17345;SDS011;8790;53.590;10.002;2022-10-31T08:16:43;23.20;;;14.13;;
17345;SDS011;8790;53.590;10.002;2022-10-31T08:19:16;24.37;;;14.60;;
17345;SDS011;8790;53.590;10.002;2022-10-31T08:21:51;22.60;;;14.67;;
17345;SDS011;8790;53.590;10.002;2022-10-31T08:24:25;24.73;;;14.60;;
17345;SDS011;8790;53.590;10.002;2022-10-31T08:26:58;24.83;;;15.37;;
17345;SDS011;8790;53.590;10.002;2022-10-31T08:29:30;25.33;;;15.37;;
17345;SDS011;8790;53.590;10.002;2022-10-31T08:32:01;25.57;;;15.07;;
17345;SDS011;8790;53.590;10.002;2022-10-31T08:34:52;26.83;;;15.40;;
17345;SDS011;8790;53.590;10.002;2022-10-31T08:37:53;23.10;;;14.67;;
17345;SDS011;8790;53.590;10.002;2022-10-31T08:40:29;23.03;;;15.27;;
17345;SDS011;8790;53.590;10.002;2022-10-31T08:43:08;25.07;;;15.53;;
17345;SDS011;8790;53.590;10.002;2022-10-31T08:45:42;25.17;;;15.40;;
17345;SDS011;8790;53.590;10.002;2022-10-31T08:48:22;26.63;;;15.83;;
17345;SDS011;8790;53.590;10.002;2022-10-31T08:50:55;24.70;;;15.47;;
17345;SDS011;8790;53.590;10.002;2022-10-31T08:53:29;25.37;;;14.63;;
17345;SDS011;8790;53.590;10.002;2022-10-31T08:56:20;19.63;;;13.87;;
17345;SDS011;8790;53.590;10.002;2022-10-31T08:58:53;18.80;;;12.53;;
17345;SDS011;8790;53.590;10.002;2022-10-31T09:01:35;23.27;;;14.03;;
17345;SDS011;8790;53.590;10.002;2022-10-31T09:04:09;20.60;;;13.87;;
17345;SDS011;8790;53.590;10.002;2022-10-31T09:06:41;23.80;;;13.00;;
17345;SDS011;8790;53.590;10.002;2022-10-31T09:09:15;25.00;;;15.20;;
17345;SDS011;8790;53.590;10.002;2022-10-31T09:11:46;24.67;;;15.27;;
17345;SDS011;8790;53.590;10.002;2022-10-31T09:14:44;22.87;;;14.33;;
17345;SDS011;8790;53.590;10.002;2022-10-31T09:17:27;25.33;;;14.70;;
17345;SDS011;8790;53.590;10.002;2022-10-31T09:20:38;27.60;;;15.57;;
17345;SDS011;8790;53.590;10.002;2022-10-31T09:23:11;24.93;;;15.87;;
17345;SDS011;8790;53.590;10.002;2022-10-31T09:25:46;25.93;;;15.97;;
17345;SDS011;8790;53.590;10.002;2022-10-31T09:28:37;23.70;;;15.17;;
17345;SDS011;8790;53.590;10.002;2022-10-31T09:31:15;27.27;;;16.13;;
17345;SDS011;8790;53.590;10.002;2022-10-31T09:33:59;28.07;;;16.97;;
17345;SDS011;8790;53.590;10.002;2022-10-31T09:36:39;27.77;;;15.77;;
17345;SDS011;8790;53.590;10.002;2022-10-31T09:39:21;28.10;;;15.27;;
17345;SDS011;8790;53.590;10.002;2022-10-31T09:45:21;24.97;;;14.10;;
17345;SDS011;8790;53.590;10.002;2022-10-31T09:48:15;24.70;;;14.03;;
17345;SDS011;8790;53.590;10.002;2022-10-31T09:51:15;24.73;;;14.10;;
17345;SDS011;8790;53.590;10.002;2022-10-31T09:54:16;21.97;;;13.80;;
17345;SDS011;8790;53.590;10.002;2022-10-31T09:56:51;22.27;;;14.20;;
17345;SDS011;8790;53.590;10.002;2022-10-31T09:59:25;25.90;;;14.93;;
17345;SDS011;8790;53.590;10.002;2022-10-31T10:02:04;30.37;;;15.23;;
17345;SDS011;8790;53.590;10.002;2022-10-31T10:04:42;21.87;;;14.80;;
17345;SDS011;8790;53.590;10.002;2022-10-31T10:07:24;25.83;;;15.47;;
17345;SDS011;8790;53.590;10.002;2022-10-31T10:10:25;26.17;;;15.37;;
17345;SDS011;8790;53.590;10.002;2022-10-31T10:13:52;27.87;;;15.77;;
17345;SDS011;8790;53.590;10.002;2022-10-31T10:16:45;26.73;;;16.07;;
17345;SDS011;8790;53.590;10.002;2022-10-31T10:19:30;26.50;;;15.43;;
17345;SDS011;8790;53.590;10.002;2022-10-31T10:22:19;21.70;;;14.07;;
17345;SDS011;8790;53.590;10.002;2022-10-31T10:25:01;24.83;;;14.97;;
17345;SDS011;8790;53.590;10.002;2022-10-31T10:27:42;26.67;;;15.03;;
17345;SDS011;8790;53.590;10.002;2022-10-31T10:30:28;24.73;;;15.83;;
17345;SDS011;8790;53.590;10.002;2022-10-31T10:33:09;25.00;;;15.47;;
17345;SDS011;8790;53.590;10.002;2022-10-31T10:35:44;26.13;;;15.13;;
17345;SDS011;8790;53.590;10.002;2022-10-31T10:38:23;23.90;;;15.03;;
17345;SDS011;8790;53.590;10.002;2022-10-31T10:41:01;22.53;;;14.57;;
17345;SDS011;8790;53.590;10.002;2022-10-31T10:43:37;24.33;;;14.03;;
17345;SDS011;8790;53.590;10.002;2022-10-31T10:46:13;18.53;;;12.97;;
17345;SDS011;8790;53.590;10.002;2022-10-31T10:49:15;21.13;;;13.33;;
17345;SDS011;8790;53.590;10.002;2022-10-31T10:51:51;19.53;;;11.67;;
17345;SDS011;8790;53.590;10.002;2022-10-31T10:54:33;18.53;;;12.43;;
17345;SDS011;8790;53.590;10.002;2022-10-31T10:57:22;20.33;;;12.63;;
17345;SDS011;8790;53.590;10.002;2022-10-31T11:00:11;20.27;;;13.00;;
17345;SDS011;8790;53.590;10.002;2022-10-31T11:02:48;23.53;;;13.90;;
17345;SDS011;8790;53.590;10.002;2022-10-31T11:05:23;19.90;;;12.23;;
17345;SDS011;8790;53.590;10.002;2022-10-31T11:07:59;21.10;;;12.90;;
17345;SDS011;8790;53.590;10.002;2022-10-31T11:10:30;21.43;;;12.63;;
17345;SDS011;8790;53.590;10.002;2022-10-31T11:13:05;20.67;;;12.80;;
17345;SDS011;8790;53.590;10.002;2022-10-31T11:15:51;18.47;;;10.87;;
17345;SDS011;8790;53.590;10.002;2022-10-31T11:18:29;17.63;;;10.97;;
17345;SDS011;8790;53.590;10.002;2022-10-31T11:21:03;19.97;;;11.27;;
17345;SDS011;8790;53.590;10.002;2022-10-31T11:23:35;18.57;;;11.50;;
17345;SDS011;8790;53.590;10.002;2022-10-31T11:26:14;20.17;;;12.63;;
17345;SDS011;8790;53.590;10.002;2022-10-31T11:28:55;16.93;;;11.23;;
17345;SDS011;8790;53.590;10.002;2022-10-31T11:31:28;22.20;;;12.07;;
17345;SDS011;8790;53.590;10.002;2022-10-31T11:34:01;21.37;;;13.27;;
17345;SDS011;8790;53.590;10.002;2022-10-31T11:36:38;23.23;;;14.33;;
17345;SDS011;8790;53.590;10.002;2022-10-31T11:39:15;24.23;;;15.37;;
17345;SDS011;8790;53.590;10.002;2022-10-31T11:41:50;20.07;;;14.67;;
17345;SDS011;8790;53.590;10.002;2022-10-31T11:44:24;20.60;;;15.10;;
17345;SDS011;8790;53.590;10.002;2022-10-31T11:46:58;23.20;;;16.60;;
17345;SDS011;8790;53.590;10.002;2022-10-31T11:49:34;25.47;;;18.67;;
17345;SDS011;8790;53.590;10.002;2022-10-31T11:52:13;25.80;;;18.00;;
17345;SDS011;8790;53.590;10.002;2022-10-31T11:54:48;29.80;;;20.77;;
17345;SDS011;8790;53.590;10.002;2022-10-31T11:57:24;30.00;;;20.27;;
17345;SDS011;8790;53.590;10.002;2022-10-31T11:59:58;29.80;;;20.83;;
17345;SDS011;8790;53.590;10.002;2022-10-31T12:02:42;34.30;;;21.30;;
17345;SDS011;8790;53.590;10.002;2022-10-31T12:05:17;31.07;;;21.60;;
17345;SDS011;8790;53.590;10.002;2022-10-31T12:07:52;34.13;;;22.67;;
17345;SDS011;8790;53.590;10.002;2022-10-31T12:10:24;32.63;;;21.73;;
17345;SDS011;8790;53.590;10.002;2022-10-31T12:13:05;29.20;;;20.10;;
17345;SDS011;8790;53.590;10.002;2022-10-31T12:16:04;31.73;;;21.53;;
17345;SDS011;8790;53.590;10.002;2022-10-31T12:18:48;30.03;;;20.67;;
17345;SDS011;8790;53.590;10.002;2022-10-31T12:21:31;33.13;;;21.73;;
17345;SDS011;8790;53.590;10.002;2022-10-31T12:24:16;34.60;;;21.90;;
17345;SDS011;8790;53.590;10.002;2022-10-31T12:27:10;31.50;;;21.07;;
17345;SDS011;8790;53.590;10.002;2022-10-31T12:29:52;35.37;;;22.00;;
17345;SDS011;8790;53.590;10.002;2022-10-31T12:32:36;36.13;;;22.87;;
17345;SDS011;8790;53.590;10.002;2022-10-31T12:35:20;34.73;;;21.83;;
17345;SDS011;8790;53.590;10.002;2022-10-31T12:38:05;36.37;;;21.97;;
17345;SDS011;8790;53.590;10.002;2022-10-31T12:41:07;35.87;;;21.73;;
17345;SDS011;8790;53.590;10.002;2022-10-31T12:43:53;34.70;;;22.10;;
17345;SDS011;8790;53.590;10.002;2022-10-31T12:46:31;37.70;;;23.23;;
17345;SDS011;8790;53.590;10.002;2022-10-31T12:49:26;37.70;;;22.57;;
17345;SDS011;8790;53.590;10.002;2022-10-31T12:52:21;37.80;;;22.90;;
17345;SDS011;8790;53.590;10.002;2022-10-31T12:55:05;39.57;;;22.70;;
17345;SDS011;8790;53.590;10.002;2022-10-31T12:57:48;39.03;;;24.27;;
17345;SDS011;8790;53.590;10.002;2022-10-31T13:00:25;41.17;;;24.77;;
17345;SDS011;8790;53.590;10.002;2022-10-31T13:02:59;40.03;;;23.70;;
17345;SDS011;8790;53.590;10.002;2022-10-31T13:05:36;40.20;;;24.03;;
17345;SDS011;8790;53.590;10.002;2022-10-31T13:08:11;32.67;;;21.87;;
17345;SDS011;8790;53.590;10.002;2022-10-31T13:10:48;35.17;;;22.50;;
17345;SDS011;8790;53.590;10.002;2022-10-31T13:13:31;30.60;;;21.20;;
17345;SDS011;8790;53.590;10.002;2022-10-31T13:16:09;30.87;;;21.43;;
17345;SDS011;8790;53.590;10.002;2022-10-31T13:18:44;28.67;;;20.43;;
17345;SDS011;8790;53.590;10.002;2022-10-31T13:21:21;29.83;;;21.27;;
17345;SDS011;8790;53.590;10.002;2022-10-31T13:23:54;30.47;;;21.10;;
17345;SDS011;8790;53.590;10.002;2022-10-31T13:26:33;26.77;;;19.57;;
17345;SDS011;8790;53.590;10.002;2022-10-31T13:29:11;26.97;;;19.03;;
17345;SDS011;8790;53.590;10.002;2022-10-31T13:31:49;26.90;;;18.67;;
17345;SDS011;8790;53.590;10.002;2022-10-31T13:34:23;27.47;;;18.47;;
17345;SDS011;8790;53.590;10.002;2022-10-31T13:37:00;30.83;;;20.17;;
17345;SDS011;8790;53.590;10.002;2022-10-31T13:39:43;26.00;;;19.20;;
17345;SDS011;8790;53.590;10.002;2022-10-31T13:42:23;28.73;;;17.83;;
17345;SDS011;8790;53.590;10.002;2022-10-31T13:45:12;26.33;;;18.00;;
17345;SDS011;8790;53.590;10.002;2022-10-31T13:47:54;25.00;;;17.43;;
17345;SDS011;8790;53.590;10.002;2022-10-31T13:50:33;26.63;;;16.70;;
17345;SDS011;8790;53.590;10.002;2022-10-31T13:53:13;21.80;;;16.37;;
17345;SDS011;8790;53.590;10.002;2022-10-31T13:55:50;20.10;;;15.03;;
17345;SDS011;8790;53.590;10.002;2022-10-31T13:58:34;20.50;;;15.30;;
17345;SDS011;8790;53.590;10.002;2022-10-31T14:01:14;22.63;;;15.00;;
17345;SDS011;8790;53.590;10.002;2022-10-31T14:03:55;21.67;;;15.50;;
17345;SDS011;8790;53.590;10.002;2022-10-31T14:06:37;21.87;;;15.07;;
17345;SDS011;8790;53.590;10.002;2022-10-31T14:09:17;23.17;;;16.20;;
17345;SDS011;8790;53.590;10.002;2022-10-31T14:11:54;21.97;;;15.50;;
17345;SDS011;8790;53.590;10.002;2022-10-31T14:14:29;20.43;;;14.67;;
17345;SDS011;8790;53.590;10.002;2022-10-31T14:17:05;21.27;;;13.93;;
17345;SDS011;8790;53.590;10.002;2022-10-31T14:20:00;23.57;;;14.80;;
17345;SDS011;8790;53.590;10.002;2022-10-31T14:22:50;21.83;;;13.83;;
17345;SDS011;8790;53.590;10.002;2022-10-31T14:25:27;23.33;;;14.47;;
17345;SDS011;8790;53.590;10.002;2022-10-31T14:28:02;22.60;;;14.67;;
17345;SDS011;8790;53.590;10.002;2022-10-31T14:30:52;20.67;;;13.80;;
17345;SDS011;8790;53.590;10.002;2022-10-31T14:33:26;19.67;;;13.33;;
17345;SDS011;8790;53.590;10.002;2022-10-31T14:36:00;21.33;;;13.97;;
17345;SDS011;8790;53.590;10.002;2022-10-31T14:38:38;19.20;;;13.13;;
17345;SDS011;8790;53.590;10.002;2022-10-31T14:41:28;19.37;;;14.03;;
17345;SDS011;8790;53.590;10.002;2022-10-31T14:44:29;22.10;;;13.83;;
17345;SDS011;8790;53.590;10.002;2022-10-31T14:47:19;19.77;;;13.53;;
17345;SDS011;8790;53.590;10.002;2022-10-31T14:53:04;21.73;;;13.30;;
17345;SDS011;8790;53.590;10.002;2022-10-31T14:55:38;21.37;;;14.33;;
17345;SDS011;8790;53.590;10.002;2022-10-31T14:58:15;24.13;;;14.23;;
17345;SDS011;8790;53.590;10.002;2022-10-31T15:00:52;20.73;;;15.03;;
17345;SDS011;8790;53.590;10.002;2022-10-31T15:03:27;23.70;;;14.63;;
17345;SDS011;8790;53.590;10.002;2022-10-31T15:06:09;21.17;;;14.57;;
17345;SDS011;8790;53.590;10.002;2022-10-31T15:08:43;19.70;;;13.90;;
17345;SDS011;8790;53.590;10.002;2022-10-31T15:11:17;22.20;;;14.57;;
17345;SDS011;8790;53.590;10.002;2022-10-31T15:13:51;21.80;;;13.50;;
17345;SDS011;8790;53.590;10.002;2022-10-31T15:16:25;19.37;;;13.77;;
17345;SDS011;8790;53.590;10.002;2022-10-31T15:19:03;20.30;;;13.30;;
17345;SDS011;8790;53.590;10.002;2022-10-31T15:21:39;21.03;;;13.57;;
17345;SDS011;8790;53.590;10.002;2022-10-31T15:24:14;20.00;;;13.10;;
17345;SDS011;8790;53.590;10.002;2022-10-31T15:26:49;18.90;;;13.40;;
17345;SDS011;8790;53.590;10.002;2022-10-31T15:29:24;21.03;;;14.10;;
17345;SDS011;8790;53.590;10.002;2022-10-31T15:31:58;21.00;;;13.60;;
17345;SDS011;8790;53.590;10.002;2022-10-31T15:34:32;20.27;;;14.00;;
17345;SDS011;8790;53.590;10.002;2022-10-31T15:37:10;20.83;;;13.33;;
17345;SDS011;8790;53.590;10.002;2022-10-31T15:39:44;19.67;;;14.77;;
17345;SDS011;8790;53.590;10.002;2022-10-31T15:42:18;20.30;;;14.17;;